createdAt,value
2018-12-29T00:03:38.021Z,99525.65
2018-12-29T00:06:06.417Z,99523.70
2018-12-29T00:08:34.814Z,99525.04
2018-12-29T00:11:03.557Z,99525.89
2018-12-29T00:13:32.246Z,99525.06
2018-12-29T00:16:00.930Z,99522.99
2018-12-29T00:18:29.412Z,99517.38
2018-12-29T00:20:58.092Z,99506.37
2018-12-29T00:23:26.485Z,99505.16
2018-12-29T00:25:55.163Z,99498.74
2018-12-29T00:28:43.197Z,99506.33
2018-12-29T00:31:11.887Z,99504.92
2018-12-29T00:33:40.278Z,99502.98
2018-12-29T00:36:08.669Z,99516.03
2018-12-29T00:38:37.081Z,99515.88
2018-12-29T00:41:05.469Z,99524.66
2018-12-29T00:43:33.860Z,99547.11
2018-12-29T00:46:02.569Z,99532.91
2018-12-29T00:48:31.200Z,99530.56
2018-12-29T00:50:59.837Z,99543.09
2018-12-29T00:53:28.248Z,99554.66
2018-12-29T00:55:56.647Z,99560.21
2018-12-29T00:58:25.040Z,99553.89
2018-12-29T01:00:53.441Z,99563.92
2018-12-29T01:03:22.145Z,99559.37
2018-12-29T01:05:50.552Z,99554.69
2018-12-29T01:08:18.960Z,99557.84
2018-12-29T01:10:47.376Z,99566.37
2018-12-29T01:13:15.779Z,99569.22
2018-12-29T01:15:44.444Z,99563.59
2018-12-29T01:18:13.133Z,99584.53
2018-12-29T01:20:41.817Z,99577.63
2018-12-29T01:23:10.207Z,99576.88
2018-12-29T01:25:57.954Z,99585.56
2018-12-29T01:28:26.344Z,99592.41
2018-12-29T01:30:54.745Z,99599.21
2018-12-29T01:33:23.141Z,99598.72
2018-12-29T01:35:51.533Z,99607.88
2018-12-29T01:38:19.942Z,99603.20
2018-12-29T01:40:48.344Z,99606.34
2018-12-29T01:43:16.973Z,99607.57
2018-12-29T01:45:45.387Z,99605.05
2018-12-29T01:48:33.118Z,99613.34
2018-12-29T01:51:01.529Z,99611.61
2018-12-29T01:53:29.921Z,99611.30
2018-12-29T01:55:58.645Z,99603.52
2018-12-29T01:58:46.393Z,99596.89
2018-12-29T02:01:14.786Z,99603.30
2018-12-29T02:03:43.181Z,99608.09
2018-12-29T02:06:11.925Z,99608.74
2018-12-29T02:08:40.318Z,99599.98
2018-12-29T02:11:08.709Z,99600.61
2018-12-29T02:13:37.122Z,99597.65
2018-12-29T02:16:05.523Z,99591.09
2018-12-29T02:18:33.914Z,99594.12
2018-12-29T02:21:02.325Z,99595.30
2018-12-29T02:23:30.717Z,99578.21
2018-12-29T02:25:59.110Z,99577.59
2018-12-29T02:28:27.524Z,99570.48
2018-12-29T02:30:55.918Z,99562.33
2018-12-29T02:33:43.663Z,99545.33
2018-12-29T02:36:31.393Z,99555.44
2018-12-29T02:39:00.066Z,99559.70
2018-12-29T02:41:28.457Z,99552.98
2018-12-29T02:43:57.118Z,99558.20
2018-12-29T02:46:25.533Z,99579.23
2018-12-29T02:48:53.926Z,99586.89
2018-12-29T02:51:22.312Z,99587.24
2018-12-29T02:53:50.725Z,99585.66
2018-12-29T02:56:19.438Z,99573.07
2018-12-29T02:58:47.840Z,99569.60
2018-12-29T03:01:16.255Z,99569.74
2018-12-29T03:03:44.651Z,99570.81
2018-12-29T03:06:13.357Z,99561.22
2018-12-29T03:08:42.042Z,99574.64
2018-12-29T03:11:10.433Z,99571.23
2018-12-29T03:13:38.826Z,99580.73
2018-12-29T03:16:07.236Z,99561.35
2018-12-29T03:18:35.971Z,99558.41
2018-12-29T03:21:04.368Z,99556.92
2018-12-29T03:23:32.779Z,99551.98
2018-12-29T03:26:01.526Z,99550.80
2018-12-29T03:28:29.905Z,99537.59
2018-12-29T03:30:58.317Z,99545.88
2018-12-29T03:33:26.708Z,99534.41
2018-12-29T03:35:55.105Z,99544.66
2018-12-29T03:38:23.754Z,99549.81
2018-12-29T03:40:52.216Z,99548.47
2018-12-29T03:43:20.883Z,99544.59
2018-12-29T03:45:49.584Z,99545.49
2018-12-29T03:48:19.406Z,99543.36
2018-12-29T03:50:47.800Z,99543.72
2018-12-29T03:53:16.279Z,99543.22
2018-12-29T03:55:44.675Z,99544.20
2018-12-29T03:58:13.071Z,99539.23
2018-12-29T04:00:41.481Z,99537.28
2018-12-29T04:03:09.869Z,99540.06
2018-12-29T04:05:38.548Z,99536.06
2018-12-29T04:08:06.955Z,99538.13
2018-12-29T04:10:35.355Z,99548.59
2018-12-29T04:13:03.743Z,99554.44
2018-12-29T04:15:32.149Z,99545.92
2018-12-29T04:18:00.547Z,99531.09
2018-12-29T04:20:28.932Z,99538.02
2018-12-29T04:22:57.605Z,99543.36
2018-12-29T04:25:26.233Z,99540.58
2018-12-29T04:27:54.630Z,99542.69
2018-12-29T04:30:23.355Z,99536.67
2018-12-29T04:32:51.746Z,99537.27
2018-12-29T04:35:20.141Z,99519.84
2018-12-29T04:37:48.795Z,99520.13
2018-12-29T04:40:36.533Z,99520.37
2018-12-29T04:43:04.939Z,99509.36
2018-12-29T04:45:33.598Z,99513.48
2018-12-29T04:48:01.982Z,99513.95
2018-12-29T04:50:30.376Z,99493.13
2018-12-29T04:52:58.794Z,99517.28
2018-12-29T04:55:27.181Z,99514.70
2018-12-29T04:57:55.583Z,99518.64
2018-12-29T05:00:24.262Z,99518.55
2018-12-29T05:02:52.654Z,99519.71
2018-12-29T05:05:21.048Z,99526.61
2018-12-29T05:07:49.453Z,99524.07
2018-12-29T05:10:17.846Z,99523.64
2018-12-29T05:12:46.240Z,99530.49
2018-12-29T05:15:14.641Z,99536.39
2018-12-29T05:17:43.325Z,99540.94
2018-12-29T05:20:11.731Z,99543.08
2018-12-29T05:22:40.494Z,99542.07
2018-12-29T05:25:08.883Z,99547.59
2018-12-29T05:27:37.274Z,99544.42
2018-12-29T05:30:07.064Z,99548.08
2018-12-29T05:32:35.458Z,99555.64
2018-12-29T05:35:03.868Z,99559.21
2018-12-29T05:37:32.279Z,99554.80
2018-12-29T05:40:00.673Z,99564.73
2018-12-29T05:42:29.085Z,99566.61
2018-12-29T05:44:57.491Z,99564.61
2018-12-29T05:47:26.222Z,99571.41
2018-12-29T05:49:54.913Z,99578.27
2018-12-29T05:52:23.316Z,99583.39
2018-12-29T05:54:51.725Z,99583.46
2018-12-29T05:57:20.132Z,99580.31
2018-12-29T05:59:48.522Z,99583.99
2018-12-29T06:02:16.930Z,99593.84
2018-12-29T06:04:45.324Z,99581.86
2018-12-29T06:07:13.726Z,99569.71
2018-12-29T06:09:42.120Z,99593.72
2018-12-29T06:12:10.522Z,99598.21
2018-12-29T06:14:38.921Z,99600.47
2018-12-29T06:17:07.335Z,99608.38
2018-12-29T06:19:36.077Z,99606.00
2018-12-29T06:22:04.534Z,99603.87
2018-12-29T06:24:33.236Z,99617.21
2018-12-29T06:27:01.626Z,99623.33
2018-12-29T06:29:30.020Z,99627.77
2018-12-29T06:31:58.426Z,99623.51
2018-12-29T06:34:26.832Z,99625.09
2018-12-29T06:36:55.220Z,99611.58
2018-12-29T06:39:23.622Z,99603.47
2018-12-29T06:41:52.015Z,99593.97
2018-12-29T06:44:20.673Z,99596.33
2018-12-29T06:46:49.081Z,99591.13
2018-12-29T06:49:17.481Z,99584.13
2018-12-29T06:51:45.867Z,99582.47
2018-12-29T06:54:14.270Z,99575.91
2018-12-29T06:56:42.659Z,99574.74
2018-12-29T06:59:11.064Z,99577.70
2018-12-29T07:01:39.740Z,99572.17
2018-12-29T07:04:08.128Z,99581.99
2018-12-29T07:06:36.530Z,99578.86
2018-12-29T07:09:06.763Z,99586.64
2018-12-29T07:11:35.172Z,99596.20
2018-12-29T07:14:03.563Z,99596.66
2018-12-29T07:16:32.259Z,99598.27
2018-12-29T07:19:00.671Z,99599.95
2018-12-29T07:21:29.060Z,99598.63
2018-12-29T07:23:57.693Z,99606.13
2018-12-29T07:26:26.147Z,99603.69
2018-12-29T07:28:54.488Z,99606.10
2018-12-29T07:31:22.892Z,99609.80
2018-12-29T07:33:51.283Z,99614.84
2018-12-29T07:36:19.689Z,99607.45
2018-12-29T07:38:48.081Z,99614.59
2018-12-29T07:41:16.553Z,99609.03
2018-12-29T07:43:45.245Z,99613.52
2018-12-29T07:46:13.634Z,99621.34
2018-12-29T07:48:42.042Z,99618.94
2018-12-29T07:51:10.688Z,99629.55
2018-12-29T07:53:39.079Z,99636.59
2018-12-29T07:56:07.492Z,99631.45
2018-12-29T07:58:36.192Z,99626.94
2018-12-29T08:01:04.578Z,99627.10
2018-12-29T08:03:32.982Z,99634.92
2018-12-29T08:06:01.678Z,99635.27
2018-12-29T08:08:30.087Z,99636.75
2018-12-29T08:10:58.475Z,99629.36
2018-12-29T08:13:26.878Z,99638.56
2018-12-29T08:15:55.270Z,99636.36
2018-12-29T08:18:23.659Z,99650.85
2018-12-29T08:20:52.064Z,99645.03
2018-12-29T08:23:20.451Z,99636.59
2018-12-29T08:25:48.838Z,99647.00
2018-12-29T08:28:17.251Z,99640.86
2018-12-29T08:30:45.643Z,99638.08
2018-12-29T08:33:14.037Z,99636.75
2018-12-29T08:35:42.733Z,99643.19
2018-12-29T08:38:11.125Z,99640.45
2018-12-29T08:40:39.758Z,99642.59
2018-12-29T08:43:08.485Z,99643.02
2018-12-29T08:45:37.171Z,99652.92
2018-12-29T08:48:05.853Z,99669.12
2018-12-29T08:50:34.564Z,99674.16
2018-12-29T08:53:02.935Z,99667.00
2018-12-29T08:55:31.605Z,99675.18
2018-12-29T08:58:00.294Z,99673.66
2018-12-29T09:00:28.686Z,99673.69
2018-12-29T09:02:57.076Z,99676.92
2018-12-29T09:05:25.483Z,99679.91
2018-12-29T09:07:53.936Z,99679.84
2018-12-29T09:10:22.609Z,99678.36
2018-12-29T09:12:51.282Z,99689.72
2018-12-29T09:15:19.969Z,99683.95
2018-12-29T09:17:48.657Z,99679.16
2018-12-29T09:20:17.047Z,99679.08
2018-12-29T09:22:45.436Z,99679.68
2018-12-29T09:25:14.082Z,99676.90
2018-12-29T09:27:42.782Z,99679.91
2018-12-29T09:30:11.422Z,99683.31
2018-12-29T09:32:39.836Z,99683.21
2018-12-29T09:35:08.537Z,99681.42
2018-12-29T09:37:36.927Z,99683.38
2018-12-29T09:40:06.075Z,99684.89
2018-12-29T09:42:34.466Z,99690.27
2018-12-29T09:45:02.857Z,99689.17
2018-12-29T09:47:31.552Z,99687.70
2018-12-29T09:49:59.941Z,99685.17
2018-12-29T09:52:28.332Z,99681.80
2018-12-29T09:54:56.737Z,99679.94
2018-12-29T09:57:25.479Z,99682.94
2018-12-29T09:59:53.877Z,99684.72
2018-12-29T10:02:22.642Z,99677.66
2018-12-29T10:04:51.329Z,99688.33
2018-12-29T10:07:19.721Z,99690.19
2018-12-29T10:09:48.127Z,99679.83
2018-12-29T10:12:16.525Z,99680.20
2018-12-29T10:14:45.254Z,99686.19
2018-12-29T10:17:13.720Z,99677.61
2018-12-29T10:19:42.333Z,99671.16
2018-12-29T10:22:10.728Z,99677.64
2018-12-29T10:24:39.139Z,99677.19
2018-12-29T10:27:07.532Z,99676.13
2018-12-29T10:29:35.926Z,99681.19
2018-12-29T10:32:04.341Z,99685.91
2018-12-29T10:34:32.735Z,99679.88
2018-12-29T10:37:01.394Z,99681.56
2018-12-29T10:39:30.066Z,99675.98
2018-12-29T10:41:58.459Z,99676.31
2018-12-29T10:44:26.855Z,99677.54
2018-12-29T10:46:55.501Z,99667.83
2018-12-29T10:49:23.913Z,99671.81
2018-12-29T10:51:52.597Z,99667.73
2018-12-29T10:54:21.256Z,99663.97
2018-12-29T10:56:49.674Z,99661.69
2018-12-29T10:59:18.073Z,99665.47
2018-12-29T11:01:46.806Z,99652.08
2018-12-29T11:04:15.260Z,99663.17
2018-12-29T11:06:43.974Z,99661.89
2018-12-29T11:09:12.387Z,99652.89
2018-12-29T11:11:40.791Z,99653.48
2018-12-29T11:14:09.186Z,99658.28
2018-12-29T11:16:38.412Z,99651.34
2018-12-29T11:19:06.815Z,99637.92
2018-12-29T11:21:35.576Z,99630.66
2018-12-29T11:24:03.984Z,99628.97
2018-12-29T11:26:32.375Z,99622.36
2018-12-29T11:29:00.790Z,99618.59
2018-12-29T11:31:29.187Z,99611.06
2018-12-29T11:33:57.878Z,99602.98
2018-12-29T11:36:26.294Z,99602.88
2018-12-29T11:38:54.698Z,99592.25
2018-12-29T11:41:24.087Z,99591.17
2018-12-29T11:43:52.481Z,99594.97
2018-12-29T11:46:20.877Z,99595.91
2018-12-29T11:48:49.274Z,99594.66
2018-12-29T11:51:18.170Z,99596.73
2018-12-29T11:53:46.854Z,99596.55
2018-12-29T11:56:15.286Z,99596.51
2018-12-29T11:58:43.685Z,99600.24
2018-12-29T12:01:12.084Z,99598.54
2018-12-29T12:03:40.777Z,99600.16
2018-12-29T12:06:09.178Z,99592.65
2018-12-29T12:08:37.591Z,99593.27
2018-12-29T12:11:05.996Z,99585.80
2018-12-29T12:13:34.635Z,99579.16
2018-12-29T12:16:03.392Z,99579.52
2018-12-29T12:18:32.221Z,99572.51
2018-12-29T12:21:00.591Z,99572.78
2018-12-29T12:23:29.259Z,99581.59
2018-12-29T12:25:57.656Z,99586.48
2018-12-29T12:28:26.412Z,99578.05
2018-12-29T12:30:54.816Z,99574.29
2018-12-29T12:33:23.486Z,99577.01
2018-12-29T12:35:52.164Z,99572.20
2018-12-29T12:38:20.951Z,99566.13
2018-12-29T12:40:49.345Z,99558.37
2018-12-29T12:43:18.318Z,99558.69
2018-12-29T12:45:46.995Z,99551.77
2018-12-29T12:48:15.410Z,99552.56
2018-12-29T12:50:44.072Z,99543.37
2018-12-29T12:53:12.485Z,99540.97
2018-12-29T12:55:41.369Z,99540.36
2018-12-29T12:58:10.000Z,99527.99
2018-12-29T13:00:38.788Z,99524.92
2018-12-29T13:03:07.577Z,99525.81
2018-12-29T13:05:35.969Z,99518.13
2018-12-29T13:08:04.655Z,99523.09
2018-12-29T13:10:33.053Z,99535.19
2018-12-29T13:13:01.452Z,99527.44
2018-12-29T13:15:30.215Z,99519.03
2018-12-29T13:17:58.897Z,99518.91
2018-12-29T13:20:27.893Z,99515.69
2018-12-29T13:22:56.308Z,99512.67
2018-12-29T13:25:26.049Z,99512.43
2018-12-29T13:27:54.592Z,99499.78
2018-12-29T13:30:23.012Z,99497.73
2018-12-29T13:32:51.781Z,99484.78
2018-12-29T13:35:20.178Z,99473.96
2018-12-29T13:37:48.912Z,99474.23
2018-12-29T13:40:17.326Z,99464.02
2018-12-29T13:42:45.723Z,99454.55
2018-12-29T13:45:14.741Z,99456.97
2018-12-29T13:47:43.142Z,99448.23
2018-12-29T13:50:11.557Z,99447.98
2018-12-29T13:52:40.294Z,99452.77
2018-12-29T13:55:08.686Z,99457.69
2018-12-29T13:57:37.280Z,99451.30
2018-12-29T14:00:07.084Z,99441.86
2018-12-29T14:02:35.549Z,99440.12
2018-12-29T14:05:04.234Z,99443.37
2018-12-29T14:07:32.698Z,99446.75
2018-12-29T14:10:01.408Z,99443.38
2018-12-29T14:12:29.808Z,99445.84
2018-12-29T14:14:58.473Z,99453.84
2018-12-29T14:17:26.862Z,99451.34
2018-12-29T14:19:55.338Z,99458.56
2018-12-29T14:22:23.746Z,99457.80
2018-12-29T14:24:52.267Z,99459.89
2018-12-29T14:27:20.658Z,99450.38
2018-12-29T14:29:49.358Z,99460.77
2018-12-29T14:32:18.046Z,99462.17
2018-12-29T14:34:46.681Z,99470.75
2018-12-29T14:37:15.145Z,99481.28
2018-12-29T14:39:43.939Z,99478.70
2018-12-29T14:42:12.700Z,99480.63
2018-12-29T14:44:41.089Z,99483.13
2018-12-29T14:47:09.751Z,99488.91
2018-12-29T14:49:38.161Z,99489.37
2018-12-29T14:52:06.556Z,99505.11
2018-12-29T14:54:34.955Z,99509.72
2018-12-29T14:57:03.371Z,99511.77
2018-12-29T14:59:31.768Z,99510.72
2018-12-29T15:02:00.409Z,99520.05
2018-12-29T15:04:28.819Z,99509.05
2018-12-29T15:06:57.225Z,99505.73
2018-12-29T15:09:25.873Z,99492.88
2018-12-29T15:11:54.561Z,99481.32
2018-12-29T15:14:22.977Z,99471.45
2018-12-29T15:16:51.895Z,99472.38
2018-12-29T15:19:20.655Z,99471.31
2018-12-29T15:21:49.067Z,99461.43
2018-12-29T15:24:17.485Z,99477.56
2018-12-29T15:26:45.880Z,99462.23
2018-12-29T15:29:14.898Z,99470.28
2018-12-29T15:31:43.342Z,99467.53
2018-12-29T15:34:11.737Z,99471.37
2018-12-29T15:36:40.409Z,99456.31
2018-12-29T15:39:09.079Z,99449.09
2018-12-29T15:41:37.474Z,99441.62
2018-12-29T15:44:06.455Z,99434.59
2018-12-29T15:46:34.885Z,99424.90
2018-12-29T15:49:03.641Z,99405.41
2018-12-29T15:51:32.039Z,99393.52
2018-12-29T15:54:00.452Z,99380.83
2018-12-29T15:56:29.224Z,99369.59
2018-12-29T15:58:57.948Z,99367.66
2018-12-29T16:01:26.379Z,99359.14
2018-12-29T16:03:55.117Z,99357.53
2018-12-29T16:06:23.830Z,99345.26
2018-12-29T16:08:52.493Z,99340.57
2018-12-29T16:11:26.228Z,99332.56
2018-12-29T16:13:51.910Z,99344.16
2018-12-29T16:16:20.306Z,99357.85
2018-12-29T16:18:48.703Z,99385.09
2018-12-29T16:21:17.396Z,99407.77
2018-12-29T16:23:45.786Z,99415.34
2018-12-29T16:26:14.521Z,99421.64
2018-12-29T16:28:43.634Z,99421.86
2018-12-29T16:31:12.044Z,99425.28
2018-12-29T16:33:41.737Z,99429.22
2018-12-29T16:36:10.419Z,99419.45
2018-12-29T16:38:38.833Z,99420.98
2018-12-29T16:41:07.507Z,99427.67
2018-12-29T16:43:35.903Z,99441.99
2018-12-29T16:46:04.328Z,99453.36
2018-12-29T16:48:32.756Z,99469.47
2018-12-29T16:51:01.529Z,99469.84
2018-12-29T16:53:29.939Z,99467.20
2018-12-29T16:55:58.338Z,99473.52
2018-12-29T16:58:26.728Z,99478.38
2018-12-29T17:00:55.416Z,99490.75
2018-12-29T17:03:23.806Z,99491.06
2018-12-29T17:05:52.219Z,99490.30
2018-12-29T17:08:20.615Z,99485.38
2018-12-29T17:10:49.540Z,99469.09
2018-12-29T17:13:17.947Z,99454.12
2018-12-29T17:15:46.345Z,99450.90
2018-12-29T17:18:14.756Z,99437.77
2018-12-29T17:20:43.150Z,99427.22
2018-12-29T17:23:12.551Z,99426.98
2018-12-29T17:25:41.493Z,99434.70
2018-12-29T17:28:09.890Z,99449.42
2018-12-29T17:30:38.615Z,99449.02
2018-12-29T17:33:07.301Z,99454.36
2018-12-29T17:35:35.987Z,99455.48
2018-12-29T17:38:04.673Z,99438.30
2018-12-29T17:40:33.066Z,99444.44
2018-12-29T17:43:01.477Z,99441.66
2018-12-29T17:45:29.871Z,99442.44
2018-12-29T17:47:58.802Z,99435.70
2018-12-29T17:50:27.694Z,99424.80
2018-12-29T17:52:56.092Z,99425.85
2018-12-29T17:55:24.758Z,99417.58
2018-12-29T17:57:53.972Z,99422.84
2018-12-29T18:00:22.543Z,99422.17
2018-12-29T18:02:51.237Z,99430.02
2018-12-29T18:05:19.649Z,99429.94
2018-12-29T18:07:48.047Z,99431.13
2018-12-29T18:10:16.526Z,99417.25
2018-12-29T18:12:45.257Z,99413.05
2018-12-29T18:15:13.658Z,99410.53
2018-12-29T18:17:42.327Z,99402.77
2018-12-29T18:20:10.737Z,99394.56
2018-12-29T18:22:39.130Z,99387.47
2018-12-29T18:25:07.861Z,99373.06
2018-12-29T18:27:36.269Z,99375.69
2018-12-29T18:30:05.615Z,99375.87
2018-12-29T18:32:34.006Z,99383.96
2018-12-29T18:35:02.413Z,99369.30
2018-12-29T18:37:31.084Z,99366.16
2018-12-29T18:39:59.865Z,99361.65
2018-12-29T18:42:28.561Z,99362.23
2018-12-29T18:44:56.969Z,99347.23
2018-12-29T18:47:25.374Z,99349.52
2018-12-29T18:49:54.116Z,99356.45
2018-12-29T18:52:22.959Z,99383.41
2018-12-29T18:54:51.350Z,99389.45
2018-12-29T18:57:19.758Z,99383.89
2018-12-29T18:59:48.443Z,99380.16
2018-12-29T19:02:16.832Z,99393.61
2018-12-29T19:04:45.505Z,99396.22
2018-12-29T19:07:13.911Z,99393.89
2018-12-29T19:09:43.148Z,99398.00
2018-12-29T19:12:11.592Z,99390.38
2018-12-29T19:14:40.009Z,99388.56
2018-12-29T19:17:08.418Z,99388.52
2018-12-29T19:19:37.412Z,99397.00
2018-12-29T19:22:05.821Z,99427.18
2018-12-29T19:24:34.228Z,99432.39
2018-12-29T19:27:02.633Z,99438.09
2018-12-29T19:29:31.042Z,99437.04
2018-12-29T19:32:00.024Z,99428.34
2018-12-29T19:34:28.708Z,99426.32
2018-12-29T19:36:57.383Z,99427.09
2018-12-29T19:39:26.153Z,99429.80
2018-12-29T19:41:55.041Z,99414.30
2018-12-29T19:44:24.677Z,99402.62
2018-12-29T19:46:53.781Z,99410.55
2018-12-29T19:49:22.466Z,99403.84
2018-12-29T19:51:50.861Z,99375.98
2018-12-29T19:54:19.839Z,99369.61
2018-12-29T19:56:48.526Z,99360.64
2018-12-29T19:59:17.266Z,99347.34
2018-12-29T20:01:45.668Z,99321.47
2018-12-29T20:04:14.786Z,99325.84
2018-12-29T20:06:43.191Z,99311.06
2018-12-29T20:09:11.585Z,99293.23
2018-12-29T20:11:39.985Z,99282.44
2018-12-29T20:14:08.707Z,99283.41
2018-12-29T20:16:37.118Z,99277.64
2018-12-29T20:19:05.506Z,99272.84
2018-12-29T20:21:34.156Z,99276.33
2018-12-29T20:24:02.570Z,99268.14
2018-12-29T20:26:30.960Z,99264.13
2018-12-29T20:28:59.698Z,99261.25
2018-12-29T20:31:28.344Z,99254.13
2018-12-29T20:33:57.067Z,99253.02
2018-12-29T20:36:25.478Z,99252.11
2018-12-29T20:38:54.137Z,99244.08
2018-12-29T20:41:22.532Z,99241.69
2018-12-29T20:43:50.938Z,99234.38
2018-12-29T20:46:19.680Z,99233.05
2018-12-29T20:48:48.365Z,99242.84
2018-12-29T20:51:17.052Z,99234.60
2018-12-29T20:53:45.458Z,99230.63
2018-12-29T20:56:14.086Z,99223.67
2018-12-29T20:58:42.481Z,99215.06
2018-12-29T21:01:10.885Z,99220.77
2018-12-29T21:03:39.519Z,99217.30
2018-12-29T21:06:07.927Z,99219.46
2018-12-29T21:08:36.866Z,99218.88
2018-12-29T21:11:05.244Z,99238.39
2018-12-29T21:13:33.637Z,99241.56
2018-12-29T21:16:02.273Z,99242.76
2018-12-29T21:18:30.665Z,99237.78
2018-12-29T21:20:59.145Z,99231.33
2018-12-29T21:23:27.539Z,99243.59
2018-12-29T21:25:56.184Z,99242.89
2018-12-29T21:28:24.589Z,99244.45
2018-12-29T21:30:53.261Z,99236.16
2018-12-29T21:33:21.656Z,99243.55
2018-12-29T21:35:50.352Z,99243.68
2018-12-29T21:38:18.778Z,99243.17
2018-12-29T21:40:47.401Z,99233.81
2018-12-29T21:43:15.823Z,99236.28
2018-12-29T21:45:44.559Z,99218.28
2018-12-29T21:48:12.951Z,99222.64
2018-12-29T21:50:41.536Z,99218.75
2018-12-29T21:53:10.217Z,99228.36
2018-12-29T21:55:38.612Z,99230.55
2018-12-29T21:58:07.017Z,99218.23
2018-12-29T22:00:35.753Z,99209.59
2018-12-29T22:03:04.387Z,99198.44
2018-12-29T22:05:33.123Z,99201.16
2018-12-29T22:08:01.605Z,99197.12
2018-12-29T22:10:30.288Z,99186.88
2018-12-29T22:12:58.692Z,99178.87
2018-12-29T22:15:27.098Z,99177.41
2018-12-29T22:17:55.771Z,99173.60
2018-12-29T22:20:24.156Z,99173.07
2018-12-29T22:22:52.562Z,99164.10
2018-12-29T22:25:20.954Z,99158.18
2018-12-29T22:27:49.589Z,99156.36
2018-12-29T22:30:17.993Z,99157.83
2018-12-29T22:32:46.559Z,99156.10
2018-12-29T22:35:14.949Z,99137.36
2018-12-29T22:37:43.354Z,99145.08
2018-12-29T22:40:11.741Z,99137.28
2018-12-29T22:42:40.127Z,99129.40
2018-12-29T22:45:08.978Z,99128.95
2018-12-29T22:47:37.368Z,99128.12
2018-12-29T22:50:07.290Z,99129.30
2018-12-29T22:52:35.690Z,99125.77
2018-12-29T22:55:04.530Z,99126.38
2018-12-29T22:57:32.919Z,99117.72
2018-12-29T23:00:01.535Z,99120.03
2018-12-29T23:02:30.085Z,99125.00
2018-12-29T23:04:58.520Z,99123.40
2018-12-29T23:07:26.924Z,99127.56
2018-12-29T23:09:55.574Z,99134.10
2018-12-29T23:12:23.960Z,99137.70
2018-12-29T23:14:52.359Z,99133.59
2018-12-29T23:17:20.985Z,99123.77
2018-12-29T23:19:49.708Z,99126.44
2018-12-29T23:22:18.396Z,99126.77
2018-12-29T23:24:46.784Z,99114.97
2018-12-29T23:27:15.191Z,99122.39
2018-12-29T23:29:43.836Z,99114.52
2018-12-29T23:32:12.538Z,99111.25
2018-12-29T23:34:41.121Z,99098.14
2018-12-29T23:37:09.807Z,99098.47
2018-12-29T23:39:38.215Z,99097.12
2018-12-29T23:42:06.858Z,99088.63
2018-12-29T23:44:35.541Z,99087.02
2018-12-29T23:47:04.036Z,99098.20
2018-12-29T23:49:32.919Z,99105.62
2018-12-29T23:52:01.683Z,99109.78
2018-12-29T23:54:30.330Z,99117.70
2018-12-29T23:56:59.115Z,99117.42
2018-12-29T23:59:27.525Z,99125.63
